createdAt,value
2024-01-11T00:02:20.353Z,71.70
2024-01-11T00:04:46.890Z,71.95
2024-01-11T00:07:13.839Z,72.41
2024-01-11T00:09:42.461Z,72.31
2024-01-11T00:12:09.492Z,72.36
2024-01-11T00:14:36.787Z,72.34
2024-01-11T00:19:59.392Z,72.50
2024-01-11T00:22:25.967Z,72.63
2024-01-11T00:24:52.574Z,72.82
2024-01-11T00:27:19.102Z,73.04
2024-01-11T00:29:45.644Z,72.77
2024-01-11T00:32:12.249Z,72.88
2024-01-11T00:34:41.785Z,73.40
2024-01-11T00:37:08.326Z,73.24
2024-01-11T00:39:34.852Z,73.33
2024-01-11T00:42:01.403Z,73.37
2024-01-11T00:44:29.220Z,73.14
2024-01-11T00:46:56.209Z,73.33
2024-01-11T00:52:27.152Z,73.51
2024-01-11T00:54:53.780Z,73.79
2024-01-11T00:57:24.413Z,74.18
2024-01-11T00:59:50.965Z,74.76
2024-01-11T01:02:17.600Z,73.83
2024-01-11T01:04:44.529Z,74.56
2024-01-11T01:07:11.102Z,74.44
2024-01-11T01:09:37.738Z,74.58
2024-01-11T01:12:06.917Z,74.72
2024-01-11T01:14:33.442Z,75.32
2024-01-11T01:17:00.061Z,75.09
2024-01-11T01:19:26.686Z,74.98
2024-01-11T01:21:53.276Z,75.10
2024-01-11T01:27:38.633Z,76.09
2024-01-11T01:30:30.132Z,75.65
2024-01-11T01:32:57.380Z,75.83
2024-01-11T01:35:48.732Z,76.00
2024-01-11T01:38:15.689Z,76.04
2024-01-11T01:40:49.521Z,76.06
2024-01-11T01:43:31.453Z,76.23
2024-01-11T01:46:08.394Z,76.34
2024-01-11T01:48:50.669Z,76.37
2024-01-11T01:51:17.485Z,76.69
2024-01-11T01:53:52.594Z,76.80
2024-01-11T01:56:43.843Z,76.92
2024-01-11T01:59:14.007Z,77.03
2024-01-11T02:01:41.015Z,77.44
2024-01-11T02:04:10.434Z,77.50
2024-01-11T02:06:37.595Z,77.67
2024-01-11T02:09:04.819Z,77.59
2024-01-11T02:11:31.665Z,77.79
2024-01-11T02:13:58.878Z,77.88
2024-01-11T02:16:25.657Z,78.13
2024-01-11T02:18:52.337Z,78.59
2024-01-11T02:21:25.937Z,78.64
2024-01-11T02:24:05.952Z,78.74
2024-01-11T02:26:36.089Z,78.78
2024-01-11T02:29:03.152Z,78.95
2024-01-11T02:31:29.765Z,78.87
2024-01-11T02:33:57.128Z,78.74
2024-01-11T02:36:24.419Z,79.33
2024-01-11T02:38:52.708Z,79.66
2024-01-11T02:41:19.748Z,79.90
2024-01-11T02:43:49.862Z,79.94
2024-01-11T02:46:18.595Z,80.18
2024-01-11T02:48:45.549Z,80.51
2024-01-11T02:51:12.378Z,80.24
2024-01-11T02:53:40.909Z,80.57
2024-01-11T02:56:07.497Z,80.89
2024-01-11T02:58:34.014Z,80.35
2024-01-11T03:01:00.627Z,80.88
2024-01-11T03:03:27.223Z,81.11
2024-01-11T03:05:55.529Z,81.52
2024-01-11T03:08:22.190Z,81.50
2024-01-11T03:10:48.783Z,81.48
2024-01-11T03:13:15.313Z,82.02
2024-01-11T03:15:41.745Z,82.06
2024-01-11T03:18:08.420Z,82.05
2024-01-11T03:20:38.036Z,82.34
2024-01-11T03:23:04.604Z,83.17
2024-01-11T03:25:31.178Z,82.99
2024-01-11T03:27:59.033Z,83.04
2024-01-11T03:30:26.101Z,83.25
2024-01-11T03:32:52.819Z,83.48
2024-01-11T03:35:20.129Z,83.97
2024-01-11T03:37:46.666Z,83.87
2024-01-11T03:40:13.305Z,84.22
2024-01-11T03:42:39.833Z,84.17
2024-01-11T03:45:06.815Z,84.65
2024-01-11T03:47:33.514Z,84.66
2024-01-11T03:50:25.444Z,84.93
2024-01-11T03:52:52.005Z,84.69
2024-01-11T03:55:18.841Z,85.23
2024-01-11T04:04:02.458Z,86.12
2024-01-11T04:07:19.751Z,86.33
2024-01-11T04:09:49.516Z,86.69
2024-01-11T04:12:47.254Z,87.09
2024-01-11T04:19:11.085Z,87.81
2024-01-11T04:21:40.034Z,88.66
2024-01-11T04:24:07.715Z,88.35
2024-01-11T04:26:34.405Z,88.95
2024-01-11T04:29:01.306Z,88.77
2024-01-11T04:31:28.456Z,88.88
2024-01-11T04:33:55.098Z,89.09
2024-01-11T04:36:21.887Z,89.25
2024-01-11T04:38:48.444Z,89.00
2024-01-11T04:41:18.591Z,89.77
2024-01-11T04:43:45.779Z,89.30
2024-01-11T04:46:22.830Z,89.59
2024-01-11T04:48:51.434Z,90.01
2024-01-11T04:58:45.819Z,90.00
2024-01-11T05:01:19.416Z,90.50
2024-01-11T05:03:49.571Z,90.96
2024-01-11T05:06:20.458Z,90.64
2024-01-11T05:08:48.059Z,91.31
2024-01-11T05:11:18.671Z,91.27
2024-01-11T05:13:48.714Z,91.36
2024-01-11T05:16:23.577Z,91.23
2024-01-11T05:18:51.119Z,91.28
2024-01-11T05:21:20.930Z,91.34
2024-01-11T05:23:47.945Z,91.72
2024-01-11T05:26:16.204Z,91.79
2024-01-11T05:28:42.863Z,92.30
2024-01-11T05:31:16.281Z,92.10
2024-01-11T05:33:43.588Z,92.06
2024-01-11T05:36:10.686Z,92.22
2024-01-11T05:38:37.373Z,92.02
2024-01-11T05:41:04.189Z,92.32
2024-01-11T05:43:30.743Z,92.38
2024-01-11T05:45:57.246Z,92.13
2024-01-11T05:48:23.878Z,92.25
2024-01-11T05:50:50.487Z,92.04
2024-01-11T05:53:18.338Z,92.18
2024-01-11T05:55:44.988Z,92.52
2024-01-11T05:58:11.492Z,92.18
2024-01-11T06:00:38.125Z,92.62
2024-01-11T06:03:08.494Z,93.00
2024-01-11T06:05:35.147Z,93.12
2024-01-11T06:08:01.741Z,92.73
2024-01-11T06:10:28.302Z,92.63
2024-01-11T06:12:54.820Z,93.48
2024-01-11T06:15:21.297Z,93.18
2024-01-11T06:17:49.492Z,93.59
2024-01-11T06:20:16.238Z,93.09
2024-01-11T06:22:46.059Z,93.49
2024-01-11T06:25:12.964Z,93.74
2024-01-11T06:27:39.636Z,94.03
2024-01-11T06:30:08.058Z,94.31
2024-01-11T06:32:34.746Z,93.50
2024-01-11T06:35:04.433Z,93.75
2024-01-11T06:37:31.394Z,93.35
2024-01-11T06:40:00.379Z,94.21
2024-01-11T06:42:27.263Z,93.79
2024-01-11T06:44:54.171Z,94.77
2024-01-11T06:47:21.996Z,94.79
2024-01-11T06:49:49.283Z,94.16
2024-01-11T06:52:17.755Z,94.29
2024-01-11T06:54:44.662Z,94.06
2024-01-11T06:57:11.804Z,94.88
2024-01-11T07:02:30.825Z,95.08
2024-01-11T07:04:57.914Z,95.05
2024-01-11T07:07:24.526Z,95.09
2024-01-11T07:16:14.462Z,94.73
2024-01-11T07:18:42.728Z,95.29
2024-01-11T07:21:30.404Z,94.58
2024-01-11T07:24:09.624Z,95.45
2024-01-11T07:26:36.331Z,94.77
2024-01-11T07:29:02.969Z,95.33
2024-01-11T07:31:30.560Z,95.13
2024-01-11T07:33:57.229Z,95.33
2024-01-11T07:36:26.475Z,95.29
2024-01-11T07:38:54.236Z,95.59
2024-01-11T07:41:23.805Z,95.33
2024-01-11T07:43:54.424Z,95.51
2024-01-11T07:46:29.270Z,95.40
2024-01-11T07:49:04.075Z,95.89
2024-01-11T07:51:30.771Z,95.86
2024-01-11T07:53:57.452Z,96.08
2024-01-11T07:56:23.964Z,96.49
2024-01-11T07:58:50.543Z,96.34
2024-01-11T08:01:17.767Z,96.49
2024-01-11T08:03:48.283Z,96.50
2024-01-11T08:06:15.143Z,96.72
2024-01-11T08:08:42.304Z,96.42
2024-01-11T08:11:09.314Z,96.44
2024-01-11T08:13:39.154Z,96.67
2024-01-11T08:16:10.810Z,97.04
2024-01-11T08:18:43.362Z,96.52
2024-01-11T08:21:13.207Z,97.31
2024-01-11T08:23:46.458Z,97.21
2024-01-11T08:26:19.272Z,97.33
2024-01-11T08:28:45.831Z,96.82
2024-01-11T08:31:13.740Z,97.33
2024-01-11T08:33:40.857Z,97.42
2024-01-11T08:36:08.261Z,97.57
2024-01-11T08:38:35.377Z,97.71
2024-01-11T08:41:11.366Z,97.83
2024-01-11T08:51:08.898Z,97.79
2024-01-11T08:53:37.819Z,97.54
2024-01-11T08:56:04.779Z,98.21
2024-01-11T08:58:59.325Z,97.79
2024-01-11T09:02:36.656Z,97.32
2024-01-11T09:05:10.232Z,96.68
2024-01-11T09:07:38.525Z,96.59
2024-01-11T09:10:05.673Z,96.58
2024-01-11T09:12:32.207Z,96.80
2024-01-11T09:14:58.796Z,95.90
2024-01-11T09:17:25.426Z,95.17
2024-01-11T09:19:53.068Z,95.03
2024-01-11T09:22:23.192Z,95.01
2024-01-11T09:24:56.100Z,95.12
2024-01-11T09:27:24.746Z,95.45
2024-01-11T09:29:57.244Z,95.29
2024-01-11T09:32:24.304Z,95.80
2024-01-11T09:34:51.911Z,96.94
2024-01-11T09:40:06.180Z,97.99
2024-01-11T09:42:33.187Z,98.51
2024-01-11T09:45:01.069Z,98.86
2024-01-11T09:47:29.758Z,99.50
2024-01-11T09:50:03.946Z,100.00
2024-01-11T09:52:37.238Z,100.00
2024-01-11T09:55:07.432Z,100.00
2024-01-11T09:57:38.112Z,100.00
2024-01-11T10:00:08.797Z,100.00
2024-01-11T10:02:37.024Z,100.00
2024-01-11T10:05:04.538Z,100.00
2024-01-11T10:07:35.226Z,100.00
2024-01-11T10:20:18.766Z,100.00
2024-01-11T10:27:10.878Z,100.00
2024-01-11T10:29:38.245Z,100.00
2024-01-11T10:32:05.979Z,100.00
2024-01-11T10:34:32.914Z,100.00
2024-01-11T10:37:00.446Z,100.00
2024-01-11T10:39:33.102Z,100.00
2024-01-11T10:42:07.627Z,100.00
2024-01-11T10:44:36.474Z,100.00
2024-01-11T10:47:06.558Z,100.00
2024-01-11T10:49:34.163Z,100.00
2024-01-11T10:52:03.101Z,100.00
2024-01-11T10:54:31.924Z,100.00
2024-01-11T10:57:03.959Z,100.00
2024-01-11T10:59:50.663Z,100.00
2024-01-11T11:02:21.021Z,100.00
2024-01-11T11:04:49.557Z,100.00
2024-01-11T11:07:20.107Z,100.00
2024-01-11T11:09:52.966Z,100.00
2024-01-11T11:12:21.764Z,100.00
2024-01-11T11:14:52.051Z,100.00
2024-01-11T11:17:23.432Z,100.00
2024-01-11T11:19:49.986Z,100.00
2024-01-11T11:22:17.299Z,100.00
2024-01-11T11:24:46.894Z,100.00
2024-01-11T11:27:15.657Z,100.00
2024-01-11T11:29:42.996Z,100.00
2024-01-11T11:32:18.014Z,100.00
2024-01-11T11:34:48.660Z,100.00
2024-01-11T11:37:24.752Z,100.00
2024-01-11T11:39:52.143Z,100.00
2024-01-11T11:42:19.299Z,100.00
2024-01-11T11:44:54.902Z,100.00
2024-01-11T11:47:23.993Z,100.00
2024-01-11T11:52:58.965Z,100.00
2024-01-11T11:55:26.412Z,100.00
2024-01-11T11:57:56.773Z,100.00
2024-01-11T12:00:24.685Z,100.00
2024-01-11T12:02:53.720Z,100.00
2024-01-11T12:05:20.685Z,100.00
2024-01-11T12:07:48.272Z,100.00
2024-01-11T12:10:15.336Z,100.00
2024-01-11T12:12:47.729Z,100.00
2024-01-11T12:15:14.830Z,100.00
2024-01-11T12:17:43.785Z,100.00
2024-01-11T12:20:11.294Z,100.00
2024-01-11T12:22:37.849Z,100.00
2024-01-11T12:25:05.873Z,100.00
2024-01-11T12:27:32.494Z,100.00
2024-01-11T12:29:59.917Z,100.00
2024-01-11T12:32:27.694Z,100.00
2024-01-11T12:34:54.781Z,100.00
2024-01-11T12:37:57.088Z,100.00
2024-01-11T12:40:39.424Z,100.00
2024-01-11T12:43:06.631Z,100.00
2024-01-11T12:45:33.798Z,100.00
2024-01-11T12:48:04.996Z,100.00
2024-01-11T12:50:35.641Z,100.00
2024-01-11T12:53:24.144Z,100.00
2024-01-11T12:56:05.421Z,100.00
2024-01-11T12:58:39.450Z,100.00
2024-01-11T13:01:09.400Z,100.00
2024-01-11T13:04:12.305Z,100.00
2024-01-11T13:06:39.004Z,100.00
2024-01-11T13:09:06.131Z,100.00
2024-01-11T13:11:33.649Z,100.00
2024-01-11T13:14:02.414Z,100.00
2024-01-11T13:16:29.550Z,100.00
2024-01-11T13:21:36.733Z,100.00
2024-01-11T13:24:08.780Z,100.00
2024-01-11T13:26:39.050Z,100.00
2024-01-11T13:29:06.684Z,100.00
2024-01-11T13:31:34.230Z,100.00
2024-01-11T13:37:24.168Z,100.00
2024-01-11T14:01:00.337Z,100.00
2024-01-11T14:07:37.935Z,100.00
2024-01-11T14:16:28.618Z,100.00
2024-01-11T14:19:33.455Z,100.00
2024-01-11T14:22:00.147Z,100.00
2024-01-11T14:24:33.034Z,100.00
2024-01-11T14:27:06.105Z,100.00
2024-01-11T14:29:58.099Z,100.00
2024-01-11T14:32:34.311Z,100.00
2024-01-11T14:35:22.858Z,100.00
2024-01-11T14:37:50.356Z,100.00
2024-01-11T14:40:43.039Z,100.00
2024-01-11T14:43:10.096Z,100.00
2024-01-11T14:45:39.343Z,100.00
2024-01-11T14:48:14.110Z,100.00
2024-01-11T14:50:40.846Z,100.00
2024-01-11T14:53:07.567Z,100.00
2024-01-11T14:55:36.553Z,100.00
2024-01-11T14:58:03.138Z,100.00
2024-01-11T15:00:29.694Z,100.00
2024-01-11T15:02:56.342Z,100.00
2024-01-11T15:05:23.069Z,100.00
2024-01-11T15:07:50.078Z,100.00
2024-01-11T15:10:16.744Z,100.00
2024-01-11T15:12:43.568Z,100.00
2024-01-11T15:15:13.367Z,100.00
2024-01-11T15:17:40.246Z,100.00
2024-01-11T15:26:05.220Z,100.00
2024-01-11T15:28:32.304Z,100.00
2024-01-11T15:31:19.466Z,100.00
2024-01-11T15:33:46.993Z,100.00
2024-01-11T15:36:48.312Z,100.00
2024-01-11T15:39:24.873Z,100.00
2024-01-11T15:41:56.593Z,100.00
2024-01-11T15:44:25.144Z,100.00
2024-01-11T15:46:52.760Z,100.00
2024-01-11T15:49:19.463Z,100.00
2024-01-11T15:51:46.332Z,100.00
2024-01-11T15:57:41.915Z,100.00
2024-01-11T16:00:13.000Z,100.00
2024-01-11T16:03:34.139Z,100.00
2024-01-11T16:06:26.185Z,100.00
2024-01-11T16:12:48.252Z,100.00
2024-01-11T16:19:28.578Z,100.00
2024-01-11T16:22:54.449Z,100.00
2024-01-11T16:32:32.617Z,100.00
2024-01-11T16:38:12.992Z,100.00
2024-01-11T16:41:30.060Z,100.00
2024-01-11T16:53:07.867Z,100.00
2024-01-11T17:04:07.658Z,100.00
2024-01-11T17:07:06.458Z,100.00
2024-01-11T17:09:24.108Z,100.00
2024-01-11T17:11:56.244Z,100.00
2024-01-11T17:14:45.595Z,100.00
2024-01-11T17:17:12.732Z,100.00
2024-01-11T17:22:33.382Z,100.00
2024-01-11T17:25:05.615Z,100.00
2024-01-11T17:27:59.818Z,100.00
2024-01-11T17:30:27.466Z,100.00
2024-01-11T17:32:55.749Z,100.00
2024-01-11T17:39:06.986Z,100.00
2024-01-11T17:42:25.326Z,100.00
2024-01-11T17:45:12.620Z,100.00
2024-01-11T17:47:39.492Z,100.00
2024-01-11T17:50:26.248Z,100.00
2024-01-11T17:52:53.240Z,100.00
2024-01-11T17:55:39.725Z,100.00
2024-01-11T17:58:06.558Z,100.00
2024-01-11T18:00:50.952Z,100.00
2024-01-11T18:03:17.861Z,100.00
2024-01-11T18:05:55.326Z,100.00
2024-01-11T18:08:35.330Z,100.00
2024-01-11T18:11:52.836Z,100.00
2024-01-11T18:14:12.980Z,100.00
2024-01-11T18:16:41.255Z,100.00
2024-01-11T18:19:14.879Z,100.00
2024-01-11T18:21:42.861Z,100.00
2024-01-11T18:24:10.464Z,100.00
2024-01-11T18:26:39.618Z,100.00
2024-01-11T18:29:53.137Z,100.00
2024-01-11T18:32:29.124Z,100.00
2024-01-11T18:34:57.108Z,100.00
2024-01-11T18:37:42.869Z,100.00
2024-01-11T18:40:15.316Z,100.00
2024-01-11T18:42:50.792Z,100.00
2024-01-11T18:53:37.947Z,100.00
2024-01-11T18:56:14.877Z,100.00
2024-01-11T18:58:43.533Z,100.00
2024-01-11T19:01:16.778Z,100.00
2024-01-11T19:03:44.933Z,100.00
2024-01-11T19:06:14.951Z,100.00
2024-01-11T19:08:42.329Z,100.00
2024-01-11T19:11:18.651Z,100.00
2024-01-11T19:16:58.945Z,100.00
2024-01-11T19:19:54.740Z,100.00
2024-01-11T19:22:23.046Z,100.00
2024-01-11T19:24:50.049Z,100.00
2024-01-11T19:27:36.166Z,100.00
2024-01-11T19:30:28.691Z,100.00
2024-01-11T19:32:55.940Z,100.00
2024-01-11T19:35:24.873Z,100.00
2024-01-11T19:37:54.520Z,100.00
2024-01-11T19:40:21.226Z,100.00
2024-01-11T19:42:47.885Z,100.00
2024-01-11T19:45:15.153Z,100.00
2024-01-11T19:47:42.697Z,100.00
2024-01-11T19:50:12.742Z,100.00
2024-01-11T19:52:39.399Z,100.00
2024-01-11T19:55:08.171Z,100.00
2024-01-11T19:57:35.173Z,100.00
2024-01-11T20:00:01.742Z,100.00
2024-01-11T20:02:38.191Z,100.00
2024-01-11T20:05:06.052Z,100.00
2024-01-11T20:07:33.023Z,100.00
2024-01-11T20:10:00.440Z,100.00
2024-01-11T20:12:27.176Z,100.00
2024-01-11T20:14:53.926Z,100.00
2024-01-11T20:17:20.693Z,100.00
2024-01-11T20:19:51.967Z,100.00
2024-01-11T20:22:21.360Z,100.00
2024-01-11T20:24:52.000Z,100.00
2024-01-11T20:27:19.271Z,100.00
2024-01-11T20:29:59.727Z,100.00
2024-01-11T20:32:28.268Z,100.00
2024-01-11T20:34:55.585Z,100.00
2024-01-11T20:37:24.383Z,100.00
2024-01-11T20:39:51.031Z,100.00
2024-01-11T20:42:17.614Z,100.00
2024-01-11T20:44:44.265Z,100.00
2024-01-11T20:47:11.024Z,100.00
2024-01-11T20:49:39.170Z,100.00
2024-01-11T20:52:05.893Z,100.00
2024-01-11T20:54:32.493Z,100.00
2024-01-11T20:56:59.175Z,100.00
2024-01-11T20:59:25.856Z,100.00
2024-01-11T21:01:55.458Z,100.00
2024-01-11T21:04:22.179Z,100.00
2024-01-11T21:06:49.106Z,100.00
2024-01-11T21:09:15.848Z,100.00
2024-01-11T21:11:42.436Z,100.00
2024-01-11T21:14:09.011Z,100.00
2024-01-11T21:16:35.759Z,100.00
2024-01-11T21:19:06.891Z,100.00
2024-01-11T21:21:40.510Z,100.00
2024-01-11T21:26:51.304Z,100.00
2024-01-11T21:29:18.163Z,100.00
2024-01-11T21:32:01.693Z,100.00
2024-01-11T21:34:28.605Z,100.00
2024-01-11T21:36:57.819Z,100.00
2024-01-11T21:39:25.769Z,100.00
2024-01-11T21:41:56.101Z,100.00
2024-01-11T21:48:48.614Z,100.00
2024-01-11T21:51:15.455Z,100.00
2024-01-11T21:53:42.771Z,100.00
2024-01-11T21:56:09.980Z,100.00
2024-01-11T21:58:38.367Z,100.00
2024-01-11T22:01:07.375Z,100.00
2024-01-11T22:03:40.973Z,100.00
2024-01-11T22:06:08.212Z,100.00
2024-01-11T22:08:35.023Z,100.00
2024-01-11T22:11:01.787Z,100.00
2024-01-11T22:13:31.371Z,100.00
2024-01-11T22:16:02.751Z,100.00
2024-01-11T22:20:56.467Z,100.00
2024-01-11T22:23:23.143Z,100.00
2024-01-11T22:25:49.777Z,100.00
2024-01-11T22:28:16.348Z,100.00
2024-01-11T22:30:42.999Z,100.00
2024-01-11T22:33:14.957Z,100.00
2024-01-11T22:35:41.964Z,100.00
2024-01-11T22:38:09.727Z,100.00
2024-01-11T22:40:36.320Z,100.00
2024-01-11T22:43:02.830Z,100.00
2024-01-11T22:45:29.314Z,100.00
2024-01-11T22:47:56.119Z,100.00
2024-01-11T22:50:22.728Z,100.00
2024-01-11T22:52:49.294Z,100.00
2024-01-11T22:55:16.014Z,100.00
2024-01-11T22:57:42.554Z,100.00
2024-01-11T23:00:22.287Z,100.00
2024-01-11T23:02:53.274Z,100.00
2024-01-11T23:05:20.626Z,100.00
2024-01-11T23:07:48.240Z,100.00
2024-01-11T23:10:15.288Z,100.00
2024-01-11T23:12:43.005Z,100.00
2024-01-11T23:15:11.395Z,100.00
2024-01-11T23:17:38.535Z,100.00
2024-01-11T23:20:08.042Z,100.00
2024-01-11T23:22:36.109Z,100.00
2024-01-11T23:25:02.963Z,100.00
2024-01-11T23:27:29.506Z,100.00
2024-01-11T23:29:56.840Z,100.00
2024-01-11T23:32:25.310Z,100.00
2024-01-11T23:34:51.991Z,100.00
2024-01-11T23:37:19.191Z,100.00
2024-01-11T23:39:45.819Z,100.00
2024-01-11T23:42:13.362Z,100.00
2024-01-11T23:44:43.202Z,100.00
2024-01-11T23:47:09.860Z,100.00
2024-01-11T23:49:37.138Z,100.00
2024-01-11T23:52:04.063Z,100.00
2024-01-11T23:54:30.727Z,100.00
2024-01-11T23:56:57.508Z,100.00
2024-01-11T23:59:24.788Z,100.00
